Time;durP1;ratioP1;P1;durP2;ratioP2;P2;SDS_P1;SDS_P2;PMS_P1;PMS_P2;Temp;Humidity;BMP_temperature;BMP_pressure;BME280_temperature;BME280_humidity;BME280_pressure;Samples;Min_cycle;Max_cycle;Signal;HPM_P1;HPM_P2
2021/06/09 00:01:27;;;;;;;;;;;28.80;89.10;;;;;;5083922;28;19904;-49
2021/06/09 00:03:53;;;;;;;;;;;28.80;89.00;;;;;;5066467;28;19915;-52
2021/06/09 00:06:19;;;;;;;;;;;28.80;89.20;;;;;;5083979;28;19943;-47
2021/06/09 00:08:46;;;;;;;;;;;28.80;89.30;;;;;;5083515;28;20139;-46
2021/06/09 00:11:12;;;;;;;;;;;28.80;89.30;;;;;;5084255;28;19939;-44
2021/06/09 00:13:38;;;;;;;;;;;28.80;89.40;;;;;;5084116;28;19908;-48
2021/06/09 00:16:07;;;;;;;;;;;28.80;89.10;;;;;;5084060;28;19993;-45
2021/06/09 00:18:34;;;;;;;;;;;28.80;89.00;;;;;;5087569;28;19904;-47
2021/06/09 00:21:00;;;;;;;;;;;28.80;89.10;;;;;;5087513;28;20185;-45
2021/06/09 00:23:28;;;;;;;;;;;28.70;89.20;;;;;;5087932;28;20144;-49
2021/06/09 00:25:56;;;;;;;;;;;28.70;89.40;;;;;;5087717;28;19909;-53
2021/06/09 00:28:22;;;;;;;;;;;28.70;89.60;;;;;;5087895;28;19915;-52
2021/06/09 00:30:49;;;;;;;;;;;28.60;89.50;;;;;;5087649;28;20193;-48
2021/06/09 00:33:15;;;;;;;;;;;28.70;89.70;;;;;;5088260;28;19950;-47
2021/06/09 00:35:41;;;;;;;;;;;28.70;89.90;;;;;;5087181;28;19946;-47
2021/06/09 00:38:08;;;;;;;;;;;28.70;90.10;;;;;;5087889;28;20179;-45
2021/06/09 00:40:34;;;;;;;;;;;28.60;90.20;;;;;;5087447;28;19905;-46
2021/06/09 00:43:14;;;;;;;;;;;28.70;90.50;;;;;;5087929;28;19932;-45
2021/06/09 00:45:42;;;;;;;;;;;28.60;90.30;;;;;;5086914;28;19911;-44
2021/06/09 00:48:08;;;;;;;;;;;28.70;90.40;;;;;;5069500;28;19911;-52
2021/06/09 00:50:35;;;;;;;;;;;28.60;90.40;;;;;;5087228;28;19947;-47
2021/06/09 00:55:45;;;;;;;;;;;28.60;90.30;;;;;;5086734;28;20190;-45
2021/06/09 00:58:12;;;;;;;;;;;28.60;90.60;;;;;;5087030;28;19908;-47
2021/06/09 01:00:38;;;;;;;;;;;28.60;90.60;;;;;;5086701;28;19967;-47
2021/06/09 01:03:05;;;;;;;;;;;28.60;90.70;;;;;;5086915;28;19975;-46
2021/06/09 01:05:32;;;;;;;;;;;28.60;90.70;;;;;;5086674;28;19900;-46
2021/06/09 01:08:01;;;;;;;;;;;28.50;90.80;;;;;;5087111;28;19915;-50
2021/06/09 01:10:27;;;;;;;;;;;28.50;91.10;;;;;;5086521;28;19904;-45
2021/06/09 01:12:55;;;;;;;;;;;28.50;91.10;;;;;;5068863;28;19920;-46
2021/06/09 01:15:22;;;;;;;;;;;28.50;91.10;;;;;;5086394;28;19907;-45
2021/06/09 01:17:48;;;;;;;;;;;28.50;91.20;;;;;;5086779;28;19908;-47
2021/06/09 01:20:14;;;;;;;;;;;28.40;91.20;;;;;;5086341;28;19907;-45
2021/06/09 01:22:40;;;;;;;;;;;28.40;91.20;;;;;;5086941;28;19912;-48
2021/06/09 01:25:08;;;;;;;;;;;28.40;91.30;;;;;;5086460;28;19943;-45
2021/06/09 01:27:34;;;;;;;;;;;28.40;91.30;;;;;;5086646;28;19915;-45
2021/06/09 01:30:00;;;;;;;;;;;28.40;91.50;;;;;;5086509;28;19900;-45
2021/06/09 01:32:27;;;;;;;;;;;28.40;91.40;;;;;;5086576;28;19912;-51
2021/06/09 01:34:53;;;;;;;;;;;28.40;91.30;;;;;;5085838;28;19900;-47
2021/06/09 01:37:19;;;;;;;;;;;28.40;91.10;;;;;;5086469;28;19909;-45
2021/06/09 01:39:46;;;;;;;;;;;28.40;91.00;;;;;;5085955;28;19970;-50
2021/06/09 01:42:13;;;;;;;;;;;28.40;91.00;;;;;;5085921;28;19939;-46
2021/06/09 01:44:40;;;;;;;;;;;28.30;91.10;;;;;;5068399;28;19987;-45
2021/06/09 01:47:07;;;;;;;;;;;28.40;91.10;;;;;;5086018;28;19949;-46
2021/06/09 01:49:33;;;;;;;;;;;28.30;91.10;;;;;;5085922;28;19900;-49
2021/06/09 01:52:00;;;;;;;;;;;28.30;91.00;;;;;;5067733;28;20109;-46
2021/06/09 01:54:26;;;;;;;;;;;28.30;91.10;;;;;;5085405;28;20101;-49
2021/06/09 01:56:52;;;;;;;;;;;28.30;91.00;;;;;;5085661;28;19908;-52
2021/06/09 01:59:20;;;;;;;;;;;28.30;91.00;;;;;;5085724;28;19943;-47
2021/06/09 02:01:47;;;;;;;;;;;28.30;90.90;;;;;;5067682;28;19979;-47
2021/06/09 02:04:14;;;;;;;;;;;28.30;90.90;;;;;;5085195;28;20235;-48
2021/06/09 02:06:41;;;;;;;;;;;28.30;91.00;;;;;;5085000;28;19908;-44
2021/06/09 02:09:08;;;;;;;;;;;28.30;91.00;;;;;;5085177;28;19901;-46
2021/06/09 02:11:37;;;;;;;;;;;28.30;91.10;;;;;;5085065;28;19915;-45
2021/06/09 02:14:03;;;;;;;;;;;28.20;91.10;;;;;;5067069;28;19904;-49
2021/06/09 02:16:36;;;;;;;;;;;28.20;91.10;;;;;;5084930;28;19914;-47
2021/06/09 02:19:03;;;;;;;;;;;28.20;91.10;;;;;;5085010;28;19900;-46
2021/06/09 02:21:29;;;;;;;;;;;28.20;91.00;;;;;;5084885;28;19915;-51
2021/06/09 02:23:56;;;;;;;;;;;28.20;90.90;;;;;;5084950;28;19900;-45
2021/06/09 02:26:23;;;;;;;;;;;28.20;91.00;;;;;;5085013;28;19927;-49
2021/06/09 02:28:50;;;;;;;;;;;28.20;91.10;;;;;;5067137;28;19904;-51
2021/06/09 02:31:17;;;;;;;;;;;28.20;91.20;;;;;;5084886;28;19931;-48
2021/06/09 02:33:43;;;;;;;;;;;28.20;91.30;;;;;;5085001;28;19965;-49
2021/06/09 02:36:10;;;;;;;;;;;28.20;91.30;;;;;;5084784;28;19900;-52
2021/06/09 02:38:39;;;;;;;;;;;28.20;91.30;;;;;;5084820;28;19972;-51
2021/06/09 02:41:06;;;;;;;;;;;28.20;91.30;;;;;;5084260;28;19963;-47
2021/06/09 02:43:33;;;;;;;;;;;28.20;91.10;;;;;;5084382;28;19939;-49
2021/06/09 02:46:14;;;;;;;;;;;28.20;91.20;;;;;;5085005;28;19932;-47
2021/06/09 02:48:45;;;;;;;;;;;28.20;91.10;;;;;;5084896;28;19915;-46
2021/06/09 02:51:14;;;;;;;;;;;28.20;91.00;;;;;;5084931;28;19900;-50
2021/06/09 02:53:47;;;;;;;;;;;28.20;90.90;;;;;;5084499;28;19919;-44
2021/06/09 02:56:25;;;;;;;;;;;28.10;90.90;;;;;;5084578;28;19915;-50
2021/06/09 02:58:57;;;;;;;;;;;28.10;90.90;;;;;;5084418;28;19907;-45
2021/06/09 03:01:26;;;;;;;;;;;28.10;90.90;;;;;;5084555;28;19927;-45
2021/06/09 03:04:12;;;;;;;;;;;28.10;90.80;;;;;;5084348;28;19938;-47
2021/06/09 03:06:48;;;;;;;;;;;28.10;90.80;;;;;;5084494;28;19915;-44
2021/06/09 03:09:29;;;;;;;;;;;28.00;90.70;;;;;;5084784;28;19900;-49
2021/06/09 03:12:03;;;;;;;;;;;28.00;90.70;;;;;;5084510;28;20085;-49
2021/06/09 03:17:05;;;;;;;;;;;28.00;90.60;;;;;;5084463;28;19908;-49
2021/06/09 03:19:47;;;;;;;;;;;28.00;90.50;;;;;;5084569;28;19905;-47
2021/06/09 03:22:18;;;;;;;;;;;28.00;90.50;;;;;;5084414;28;19916;-46
2021/06/09 03:24:45;;;;;;;;;;;27.90;90.50;;;;;;5084986;28;19901;-45
2021/06/09 03:27:17;;;;;;;;;;;27.90;90.40;;;;;;5085018;28;20181;-43
2021/06/09 03:30:01;;;;;;;;;;;27.80;90.30;;;;;;5084182;28;19901;-46
2021/06/09 03:32:37;;;;;;;;;;;27.80;90.40;;;;;;5084741;28;19983;-48
2021/06/09 03:35:22;;;;;;;;;;;27.80;90.30;;;;;;5084086;28;19971;-50
2021/06/09 03:37:52;;;;;;;;;;;27.80;90.30;;;;;;5084896;28;19909;-45
2021/06/09 03:40:21;;;;;;;;;;;27.70;90.30;;;;;;5066419;28;19908;-46
2021/06/09 03:42:49;;;;;;;;;;;27.70;90.30;;;;;;5084096;28;19908;-45
2021/06/09 03:45:16;;;;;;;;;;;27.70;90.30;;;;;;5084163;28;19940;-46
2021/06/09 03:47:43;;;;;;;;;;;27.70;90.30;;;;;;5084575;28;19908;-46
2021/06/09 03:50:09;;;;;;;;;;;27.70;90.10;;;;;;5084012;28;19942;-49
2021/06/09 03:52:36;;;;;;;;;;;27.70;90.10;;;;;;5086723;28;20022;-44
2021/06/09 03:55:05;;;;;;;;;;;27.70;90.10;;;;;;5087905;28;20092;-45
2021/06/09 03:57:32;;;;;;;;;;;27.70;90.00;;;;;;5088497;28;19908;-48
2021/06/09 03:59:59;;;;;;;;;;;27.70;89.90;;;;;;5087987;28;19972;-43
2021/06/09 04:02:26;;;;;;;;;;;27.70;89.50;;;;;;5087941;28;19912;-44
2021/06/09 04:04:54;;;;;;;;;;;27.70;89.10;;;;;;5088112;28;20235;-46
2021/06/09 04:07:22;;;;;;;;;;;27.70;89.10;;;;;;5088011;28;20128;-49
2021/06/09 04:09:50;;;;;;;;;;;27.60;88.80;;;;;;5087115;28;19905;-43
2021/06/09 04:12:17;;;;;;;;;;;27.60;88.60;;;;;;5087409;28;20081;-50
2021/06/09 04:14:45;;;;;;;;;;;27.60;88.70;;;;;;5087142;28;19931;-48
2021/06/09 04:17:12;;;;;;;;;;;27.50;89.00;;;;;;5087133;28;19927;-42
2021/06/09 04:19:41;;;;;;;;;;;27.40;89.40;;;;;;5087088;28;19912;-43
2021/06/09 04:22:07;;;;;;;;;;;27.40;89.90;;;;;;5087460;28;20123;-51
2021/06/09 04:24:34;;;;;;;;;;;27.30;89.80;;;;;;5087096;28;19904;-42
2021/06/09 04:27:05;;;;;;;;;;;27.30;89.80;;;;;;5086541;28;19904;-41
2021/06/09 04:29:31;;;;;;;;;;;27.30;89.90;;;;;;5086770;28;20251;-45
2021/06/09 04:31:57;;;;;;;;;;;27.40;89.90;;;;;;5086900;28;20052;-44
2021/06/09 04:34:23;;;;;;;;;;;27.30;89.60;;;;;;5086721;28;19944;-47
2021/06/09 04:36:51;;;;;;;;;;;27.30;89.70;;;;;;5086925;28;19911;-46
2021/06/09 04:39:17;;;;;;;;;;;27.30;89.80;;;;;;5086147;28;20105;-42
2021/06/09 04:41:43;;;;;;;;;;;27.30;89.90;;;;;;5087023;28;19972;-44
2021/06/09 04:44:09;;;;;;;;;;;27.30;89.90;;;;;;5086780;28;19931;-50
2021/06/09 04:46:36;;;;;;;;;;;27.40;90.00;;;;;;5100600;28;19908;-43
2021/06/09 04:49:05;;;;;;;;;;;27.30;90.00;;;;;;5105565;28;19934;-43
2021/06/09 04:51:36;;;;;;;;;;;27.40;90.00;;;;;;5105760;28;19912;-47
2021/06/09 04:54:04;;;;;;;;;;;27.40;90.00;;;;;;5105350;28;19912;-44
2021/06/09 04:56:31;;;;;;;;;;;27.40;90.10;;;;;;5106075;28;19971;-43
2021/06/09 04:58:59;;;;;;;;;;;27.40;90.20;;;;;;5106912;28;19971;-45
2021/06/09 05:01:25;;;;;;;;;;;27.40;90.30;;;;;;5107092;28;19908;-50
2021/06/09 05:03:52;;;;;;;;;;;27.40;90.30;;;;;;5106659;28;19900;-54
2021/06/09 05:06:18;;;;;;;;;;;27.40;90.40;;;;;;5106851;28;19900;-50
2021/06/09 05:08:44;;;;;;;;;;;27.40;90.40;;;;;;5106863;28;19900;-55
2021/06/09 05:11:15;;;;;;;;;;;27.30;90.50;;;;;;5106830;28;19900;-42
2021/06/09 05:13:44;;;;;;;;;;;27.30;90.40;;;;;;5087906;28;20114;-45
2021/06/09 05:16:13;;;;;;;;;;;27.30;90.50;;;;;;5105085;28;19906;-47
2021/06/09 05:18:44;;;;;;;;;;;27.30;90.50;;;;;;5105087;28;20113;-46
2021/06/09 05:21:11;;;;;;;;;;;27.30;90.50;;;;;;5105096;28;19983;-44
2021/06/09 05:23:41;;;;;;;;;;;27.30;90.60;;;;;;5086868;28;19906;-48
2021/06/09 05:26:09;;;;;;;;;;;27.30;90.60;;;;;;5104827;28;19900;-46
2021/06/09 05:28:39;;;;;;;;;;;27.30;90.60;;;;;;5105261;28;19900;-47
2021/06/09 05:31:05;;;;;;;;;;;27.30;90.70;;;;;;5106500;28;19907;-46
2021/06/09 05:33:32;;;;;;;;;;;27.30;90.80;;;;;;5106505;28;19987;-44
2021/06/09 05:35:58;;;;;;;;;;;27.30;90.80;;;;;;5106288;28;19900;-42
2021/06/09 05:38:25;;;;;;;;;;;27.30;90.80;;;;;;5106851;28;19929;-46
2021/06/09 05:40:56;;;;;;;;;;;27.30;90.80;;;;;;5106244;28;20279;-42
2021/06/09 05:43:23;;;;;;;;;;;27.30;90.80;;;;;;5106575;28;20115;-47
2021/06/09 05:45:49;;;;;;;;;;;27.30;90.80;;;;;;5106268;28;19900;-44
2021/06/09 05:48:16;;;;;;;;;;;27.30;90.90;;;;;;5106461;28;19970;-46
2021/06/09 05:50:42;;;;;;;;;;;27.30;90.90;;;;;;5105775;28;19900;-42
2021/06/09 05:53:09;;;;;;;;;;;27.20;90.90;;;;;;5105487;28;19962;-47
2021/06/09 05:55:35;;;;;;;;;;;27.30;91.10;;;;;;5105553;28;19939;-52
2021/06/09 05:58:03;;;;;;;;;;;27.20;90.80;;;;;;5105835;28;19908;-50
2021/06/09 06:00:30;;;;;;;;;;;27.20;91.00;;;;;;5105174;28;19907;-50
2021/06/09 06:02:57;;;;;;;;;;;27.20;91.00;;;;;;5105830;28;19926;-43
2021/06/09 06:05:24;;;;;;;;;;;27.20;91.00;;;;;;5105131;28;19978;-43
2021/06/09 06:07:53;;;;;;;;;;;27.20;91.00;;;;;;5105713;28;20160;-47
2021/06/09 06:10:20;;;;;;;;;;;27.20;91.00;;;;;;5105123;28;20134;-44
2021/06/09 06:12:48;;;;;;;;;;;27.20;91.10;;;;;;5104874;28;19914;-43
2021/06/09 06:15:14;;;;;;;;;;;27.20;91.10;;;;;;5104201;28;19911;-48
2021/06/09 06:17:41;;;;;;;;;;;27.20;90.90;;;;;;5105403;28;19927;-47
2021/06/09 06:20:26;;;;;;;;;;;27.20;90.90;;;;;;5105293;28;19904;-48
2021/06/09 06:22:53;;;;;;;;;;;27.20;90.80;;;;;;5105315;28;19945;-43
2021/06/09 06:25:23;;;;;;;;;;;27.20;90.70;;;;;;5104824;28;20192;-43
2021/06/09 06:27:51;;;;;;;;;;;27.10;90.60;;;;;;5105206;28;19904;-47
2021/06/09 06:30:18;;;;;;;;;;;27.20;90.60;;;;;;5105445;28;19904;-43
2021/06/09 06:32:45;;;;;;;;;;;27.10;90.60;;;;;;5105024;28;19986;-43
2021/06/09 06:35:13;;;;;;;;;;;27.10;90.50;;;;;;5104997;28;19904;-47
2021/06/09 06:37:39;;;;;;;;;;;27.10;90.50;;;;;;5105256;28;19904;-44
2021/06/09 06:40:06;;;;;;;;;;;27.10;90.50;;;;;;5105140;28;19903;-48
2021/06/09 06:42:32;;;;;;;;;;;27.10;90.60;;;;;;5105220;28;19911;-47
2021/06/09 06:45:00;;;;;;;;;;;27.10;90.60;;;;;;5104756;28;19967;-48
2021/06/09 06:47:27;;;;;;;;;;;27.10;90.70;;;;;;5104911;28;19911;-47
2021/06/09 06:49:54;;;;;;;;;;;27.00;90.70;;;;;;5104604;28;20121;-49
2021/06/09 06:52:20;;;;;;;;;;;27.10;90.80;;;;;;5104757;28;19927;-45
2021/06/09 06:54:47;;;;;;;;;;;27.10;90.80;;;;;;5104563;28;19963;-43
2021/06/09 06:57:13;;;;;;;;;;;27.10;91.10;;;;;;5104740;28;19908;-43
2021/06/09 06:59:39;;;;;;;;;;;27.10;91.10;;;;;;5104486;28;19900;-43
2021/06/09 07:02:06;;;;;;;;;;;27.00;91.20;;;;;;5104653;28;19930;-44
2021/06/09 07:04:33;;;;;;;;;;;27.00;91.10;;;;;;5104522;28;19942;-48
2021/06/09 07:06:59;;;;;;;;;;;27.00;91.10;;;;;;5086469;28;19928;-44
2021/06/09 07:09:26;;;;;;;;;;;27.00;91.20;;;;;;5104693;28;19932;-53
2021/06/09 07:11:52;;;;;;;;;;;27.00;91.20;;;;;;5104620;28;19908;-47
2021/06/09 07:14:23;;;;;;;;;;;26.90;91.30;;;;;;5104242;28;19903;-48
2021/06/09 07:16:50;;;;;;;;;;;26.90;91.20;;;;;;5104826;28;19907;-50
2021/06/09 07:19:16;;;;;;;;;;;27.00;91.20;;;;;;5103992;28;19900;-44
2021/06/09 07:21:42;;;;;;;;;;;27.00;91.20;;;;;;5104572;28;20123;-45
2021/06/09 07:24:09;;;;;;;;;;;26.90;91.20;;;;;;5104304;28;19945;-45
2021/06/09 07:26:41;;;;;;;;;;;27.00;91.20;;;;;;5106842;28;20117;-43
2021/06/09 07:29:09;;;;;;;;;;;26.90;91.20;;;;;;5108228;28;20054;-44
2021/06/09 07:31:36;;;;;;;;;;;26.90;91.30;;;;;;5108583;28;20231;-46
2021/06/09 07:34:04;;;;;;;;;;;26.90;91.30;;;;;;5108284;28;19996;-49
2021/06/09 07:36:31;;;;;;;;;;;26.90;91.40;;;;;;5108158;28;19908;-46
2021/06/09 07:39:01;;;;;;;;;;;26.90;91.40;;;;;;5108231;28;20312;-46
2021/06/09 07:41:29;;;;;;;;;;;26.90;91.40;;;;;;5108533;28;19923;-44
2021/06/09 07:44:01;;;;;;;;;;;26.90;91.50;;;;;;5108362;28;19967;-46
2021/06/09 07:46:28;;;;;;;;;;;26.90;91.50;;;;;;5107840;28;20131;-42
2021/06/09 07:48:55;;;;;;;;;;;26.90;91.50;;;;;;5108082;28;19900;-43
2021/06/09 07:51:22;;;;;;;;;;;26.90;91.50;;;;;;5107760;28;19900;-49
2021/06/09 07:53:51;;;;;;;;;;;26.80;91.40;;;;;;5107525;28;19911;-46
2021/06/09 07:56:17;;;;;;;;;;;26.80;91.50;;;;;;5107714;28;20175;-44
2021/06/09 07:58:46;;;;;;;;;;;26.80;91.40;;;;;;5107775;28;20150;-42
2021/06/09 08:01:12;;;;;;;;;;;26.80;91.40;;;;;;5107839;28;19900;-47
2021/06/09 08:03:39;;;;;;;;;;;26.80;91.40;;;;;;5107982;28;20148;-42
2021/06/09 08:06:05;;;;;;;;;;;26.80;91.30;;;;;;5107975;28;20060;-43
2021/06/09 08:08:32;;;;;;;;;;;26.80;91.20;;;;;;5107270;28;20070;-43
2021/06/09 08:10:59;;;;;;;;;;;26.80;91.20;;;;;;5107544;28;19904;-49
2021/06/09 08:13:25;;;;;;;;;;;26.80;91.30;;;;;;5107915;28;19952;-47
2021/06/09 08:15:52;;;;;;;;;;;26.80;91.20;;;;;;5107449;28;19904;-43
2021/06/09 08:18:18;;;;;;;;;;;26.80;91.20;;;;;;5108110;28;19904;-43
2021/06/09 08:21:03;;;;;;;;;;;26.80;91.10;;;;;;5107701;28;19904;-45
2021/06/09 08:23:29;;;;;;;;;;;26.80;91.10;;;;;;5107385;28;19908;-49
2021/06/09 08:25:55;;;;;;;;;;;26.70;91.30;;;;;;5107627;28;19946;-51
2021/06/09 08:28:21;;;;;;;;;;;26.70;91.30;;;;;;5107807;28;20125;-49
2021/06/09 08:30:48;;;;;;;;;;;26.70;91.30;;;;;;5107278;28;19971;-49
2021/06/09 08:33:14;;;;;;;;;;;26.70;91.30;;;;;;5107702;28;19908;-45
2021/06/09 08:35:40;;;;;;;;;;;26.70;91.40;;;;;;5107016;28;19904;-44
2021/06/09 08:38:06;;;;;;;;;;;26.70;91.40;;;;;;5106430;28;19904;-49
2021/06/09 08:40:33;;;;;;;;;;;26.70;91.30;;;;;;5106801;28;20241;-59
2021/06/09 08:43:00;;;;;;;;;;;26.70;91.40;;;;;;5107124;28;19903;-44
2021/06/09 08:45:26;;;;;;;;;;;26.60;91.40;;;;;;5107081;28;19974;-48
2021/06/09 08:47:52;;;;;;;;;;;26.60;91.40;;;;;;5107148;28;20087;-47
2021/06/09 08:50:19;;;;;;;;;;;26.60;91.40;;;;;;5107010;28;19941;-44
2021/06/09 08:52:47;;;;;;;;;;;26.60;91.50;;;;;;5106975;28;20255;-49
2021/06/09 08:55:13;;;;;;;;;;;26.60;91.60;;;;;;5106845;28;19900;-44
2021/06/09 08:57:40;;;;;;;;;;;26.60;91.50;;;;;;5106764;28;19908;-45
2021/06/09 09:00:06;;;;;;;;;;;26.60;91.50;;;;;;5106337;28;19900;-42
2021/06/09 09:02:33;;;;;;;;;;;26.60;91.40;;;;;;5106857;28;20184;-43
2021/06/09 09:04:59;;;;;;;;;;;26.60;91.30;;;;;;5106354;28;19967;-43
2021/06/09 09:07:28;;;;;;;;;;;26.60;91.30;;;;;;5106626;28;19908;-43
2021/06/09 09:09:57;;;;;;;;;;;26.50;91.30;;;;;;5106486;28;19977;-44
2021/06/09 09:12:24;;;;;;;;;;;26.50;91.30;;;;;;5106649;28;19908;-43
2021/06/09 09:14:50;;;;;;;;;;;26.50;91.30;;;;;;5106133;28;19899;-44
2021/06/09 09:17:17;;;;;;;;;;;26.50;91.20;;;;;;5106555;28;20188;-43
2021/06/09 09:19:44;;;;;;;;;;;26.50;91.20;;;;;;5106187;28;19900;-48
2021/06/09 09:22:16;;;;;;;;;;;26.50;91.20;;;;;;5106352;28;19908;-43
2021/06/09 09:24:42;;;;;;;;;;;26.50;91.10;;;;;;5106075;28;19900;-44
2021/06/09 09:27:10;;;;;;;;;;;26.50;91.10;;;;;;5105843;28;19908;-44
2021/06/09 09:29:37;;;;;;;;;;;26.50;91.10;;;;;;5105887;28;19989;-43
2021/06/09 09:32:07;;;;;;;;;;;26.50;91.10;;;;;;5106622;28;19949;-43
2021/06/09 09:34:34;;;;;;;;;;;26.50;91.10;;;;;;5106281;28;19904;-43
2021/06/09 09:37:03;;;;;;;;;;;26.50;91.00;;;;;;5106044;28;19973;-44
2021/06/09 09:39:30;;;;;;;;;;;26.40;91.00;;;;;;5105704;28;19922;-43
2021/06/09 09:41:57;;;;;;;;;;;26.40;91.00;;;;;;5105961;28;19947;-44
2021/06/09 09:44:23;;;;;;;;;;;26.40;91.00;;;;;;5105484;28;19900;-45
2021/06/09 09:46:53;;;;;;;;;;;26.40;90.90;;;;;;5105997;28;19908;-46
2021/06/09 09:49:20;;;;;;;;;;;26.40;90.90;;;;;;5105858;28;19942;-53
2021/06/09 09:51:55;;;;;;;;;;;26.40;90.90;;;;;;5105829;28;19907;-46
2021/06/09 09:54:23;;;;;;;;;;;26.40;90.90;;;;;;5105532;28;19912;-52
2021/06/09 09:56:49;;;;;;;;;;;26.40;90.90;;;;;;5105582;28;20057;-45
2021/06/09 09:59:15;;;;;;;;;;;26.40;90.90;;;;;;5105127;28;19907;-42
2021/06/09 10:01:45;;;;;;;;;;;26.40;90.90;;;;;;5105487;28;19930;-42
2021/06/09 10:04:15;;;;;;;;;;;26.40;90.90;;;;;;5105507;28;19923;-48
2021/06/09 10:06:42;;;;;;;;;;;26.40;90.80;;;;;;5105439;28;20219;-42
2021/06/09 10:09:20;;;;;;;;;;;26.30;91.00;;;;;;5105209;28;19900;-52
2021/06/09 10:11:47;;;;;;;;;;;26.30;91.10;;;;;;5104631;28;19975;-41
2021/06/09 10:14:15;;;;;;;;;;;26.30;91.10;;;;;;5103231;28;19938;-46
2021/06/09 10:16:41;;;;;;;;;;;26.30;91.10;;;;;;5103508;28;19912;-49
2021/06/09 10:19:07;;;;;;;;;;;26.30;91.10;;;;;;5103231;28;19937;-44
2021/06/09 10:21:41;;;;;;;;;;;26.30;91.00;;;;;;5103619;28;19908;-46
2021/06/09 10:24:09;;;;;;;;;;;26.30;91.00;;;;;;5104057;28;19900;-46
2021/06/09 10:26:35;;;;;;;;;;;26.30;90.90;;;;;;5103933;28;20104;-57
2021/06/09 10:29:02;;;;;;;;;;;26.30;90.90;;;;;;5104886;28;19900;-54
2021/06/09 10:31:29;;;;;;;;;;;26.30;90.90;;;;;;5105384;28;19955;-49
2021/06/09 10:33:57;;;;;;;;;;;26.30;90.80;;;;;;5103881;28;20238;-48
2021/06/09 10:36:24;;;;;;;;;;;26.30;90.90;;;;;;5104229;28;19908;-44
2021/06/09 10:38:51;;;;;;;;;;;26.30;90.90;;;;;;5104712;28;19908;-46
2021/06/09 10:41:17;;;;;;;;;;;26.30;90.80;;;;;;5104668;28;19900;-51
2021/06/09 10:43:45;;;;;;;;;;;26.30;90.80;;;;;;5104614;28;19899;-54
2021/06/09 10:46:12;;;;;;;;;;;26.30;90.80;;;;;;5104861;28;19963;-53
2021/06/09 10:48:39;;;;;;;;;;;26.30;90.80;;;;;;5104512;28;19900;-51
2021/06/09 10:51:05;;;;;;;;;;;26.30;90.80;;;;;;5104569;28;20181;-47
2021/06/09 10:53:32;;;;;;;;;;;26.30;90.80;;;;;;5104468;28;19912;-47
2021/06/09 10:55:58;;;;;;;;;;;26.30;90.80;;;;;;5104454;28;19928;-45
2021/06/09 10:58:25;;;;;;;;;;;26.30;90.70;;;;;;5105178;28;20192;-45
2021/06/09 11:00:54;;;;;;;;;;;26.30;90.70;;;;;;5103823;28;19900;-44
2021/06/09 11:03:21;;;;;;;;;;;26.30;90.70;;;;;;5104610;28;20207;-52
2021/06/09 11:05:48;;;;;;;;;;;26.40;90.70;;;;;;5104368;28;20112;-45
2021/06/09 11:08:17;;;;;;;;;;;26.30;90.70;;;;;;5104944;28;20088;-47
2021/06/09 11:10:51;;;;;;;;;;;26.30;90.70;;;;;;5104272;28;19900;-44
2021/06/09 11:13:46;;;;;;;;;;;26.30;90.70;;;;;;5104042;28;19984;-46
2021/06/09 11:16:17;;;;;;;;;;;26.30;90.70;;;;;;5102286;28;19900;-51
2021/06/09 11:18:47;;;;;;;;;;;26.30;90.70;;;;;;5104445;28;19923;-46
2021/06/09 11:21:15;;;;;;;;;;;26.30;90.70;;;;;;5103996;28;19900;-46
2021/06/09 11:23:43;;;;;;;;;;;26.30;90.70;;;;;;5086097;28;20139;-49
2021/06/09 11:26:26;;;;;;;;;;;26.30;90.70;;;;;;5104012;28;19900;-49
2021/06/09 11:28:52;;;;;;;;;;;26.30;90.70;;;;;;5104031;28;19975;-51
2021/06/09 11:31:28;;;;;;;;;;;26.30;90.70;;;;;;5104079;28;19944;-54
2021/06/09 11:33:54;;;;;;;;;;;26.40;90.70;;;;;;5103790;28;20181;-45
2021/06/09 11:36:20;;;;;;;;;;;26.40;90.80;;;;;;5103918;28;19971;-47
2021/06/09 11:38:48;;;;;;;;;;;26.40;90.70;;;;;;5104102;28;19907;-48
2021/06/09 11:41:21;;;;;;;;;;;26.40;90.80;;;;;;5103679;28;19900;-47
2021/06/09 11:43:48;;;;;;;;;;;26.40;90.80;;;;;;5104054;28;19900;-51
2021/06/09 11:46:14;;;;;;;;;;;26.40;90.80;;;;;;5103806;28;19963;-44
2021/06/09 11:48:41;;;;;;;;;;;26.40;90.80;;;;;;5103730;28;19900;-42
2021/06/09 11:51:26;;;;;;;;;;;26.40;90.80;;;;;;5103765;28;19900;-45
2021/06/09 11:53:54;;;;;;;;;;;26.50;91.10;;;;;;5103611;28;20024;-44
2021/06/09 11:56:38;;;;;;;;;;;26.50;90.90;;;;;;5103931;28;19900;-44
2021/06/09 11:59:06;;;;;;;;;;;26.50;90.90;;;;;;5103998;28;19946;-46
2021/06/09 12:01:37;;;;;;;;;;;26.50;90.90;;;;;;5103801;28;19960;-44
2021/06/09 12:04:21;;;;;;;;;;;26.50;90.90;;;;;;5104097;28;19904;-46
2021/06/09 12:06:50;;;;;;;;;;;26.50;90.90;;;;;;5104470;28;19943;-44
2021/06/09 12:09:20;;;;;;;;;;;26.50;90.90;;;;;;5104136;28;19904;-48
2021/06/09 12:11:48;;;;;;;;;;;26.60;90.90;;;;;;5104299;28;19911;-45
2021/06/09 12:14:22;;;;;;;;;;;26.60;90.90;;;;;;5107382;28;19908;-44
2021/06/09 12:16:48;;;;;;;;;;;26.60;90.90;;;;;;5107824;28;19904;-44
2021/06/09 12:19:21;;;;;;;;;;;26.60;90.90;;;;;;5107299;28;19926;-45
2021/06/09 12:21:47;;;;;;;;;;;26.60;91.00;;;;;;5107978;28;20069;-44
2021/06/09 12:24:15;;;;;;;;;;;26.60;91.00;;;;;;5107600;28;19904;-45
2021/06/09 12:26:49;;;;;;;;;;;26.60;91.00;;;;;;5107582;28;20150;-44
2021/06/09 12:29:15;;;;;;;;;;;26.70;91.00;;;;;;5107527;28;19942;-44
2021/06/09 12:31:42;;;;;;;;;;;26.70;91.00;;;;;;5108020;28;19904;-49
2021/06/09 12:34:19;;;;;;;;;;;26.70;91.00;;;;;;5107199;28;19961;-46
2021/06/09 12:36:56;;;;;;;;;;;26.70;91.10;;;;;;5107436;28;20192;-49
2021/06/09 12:39:23;;;;;;;;;;;26.80;91.10;;;;;;5107598;28;19946;-49
2021/06/09 12:41:50;;;;;;;;;;;26.80;91.20;;;;;;5107309;28;19911;-44
2021/06/09 12:44:16;;;;;;;;;;;26.80;91.30;;;;;;5106912;28;20105;-45
2021/06/09 12:46:49;;;;;;;;;;;26.80;91.40;;;;;;5107630;28;19904;-45
2021/06/09 12:49:30;;;;;;;;;;;26.80;91.30;;;;;;5107646;28;19904;-46
2021/06/09 12:52:00;;;;;;;;;;;26.80;91.20;;;;;;5107674;28;19904;-46
2021/06/09 12:54:27;;;;;;;;;;;26.80;91.20;;;;;;5088630;28;20207;-44
2021/06/09 12:56:53;;;;;;;;;;;26.80;91.20;;;;;;5107073;28;20173;-49
2021/06/09 12:59:31;;;;;;;;;;;26.90;91.20;;;;;;5106758;28;19915;-49
2021/06/09 13:01:58;;;;;;;;;;;26.80;91.10;;;;;;5107060;28;20053;-48
2021/06/09 13:04:33;;;;;;;;;;;26.90;91.20;;;;;;5106772;28;19904;-45
2021/06/09 13:07:00;;;;;;;;;;;26.90;91.30;;;;;;5107279;28;19931;-45
2021/06/09 13:09:26;;;;;;;;;;;26.90;91.30;;;;;;5106472;28;19900;-48
2021/06/09 13:11:54;;;;;;;;;;;26.90;91.40;;;;;;5106681;28;19908;-45
2021/06/09 13:14:29;;;;;;;;;;;26.90;91.40;;;;;;5106560;28;19904;-50
2021/06/09 13:17:00;;;;;;;;;;;26.90;91.40;;;;;;5106876;28;19908;-48
2021/06/09 13:19:26;;;;;;;;;;;26.90;91.40;;;;;;5106621;28;19907;-48
2021/06/09 13:21:52;;;;;;;;;;;27.00;91.50;;;;;;5106441;28;20204;-50
2021/06/09 13:24:21;;;;;;;;;;;27.00;91.60;;;;;;5105758;28;19903;-54
2021/06/09 13:26:51;;;;;;;;;;;27.00;91.60;;;;;;5106674;28;19908;-47
2021/06/09 13:29:23;;;;;;;;;;;27.00;91.70;;;;;;5106281;28;19904;-46
2021/06/09 13:31:50;;;;;;;;;;;27.00;91.60;;;;;;5106327;28;19907;-47
2021/06/09 13:34:21;;;;;;;;;;;27.00;91.50;;;;;;5105907;28;19943;-48
2021/06/09 13:36:53;;;;;;;;;;;27.10;91.40;;;;;;5106139;28;19971;-50
2021/06/09 13:39:20;;;;;;;;;;;27.10;91.40;;;;;;5087728;28;20179;-54
2021/06/09 13:41:47;;;;;;;;;;;27.10;91.40;;;;;;5105505;28;19986;-51
2021/06/09 13:44:13;;;;;;;;;;;27.10;91.40;;;;;;5106027;28;19904;-46
2021/06/09 13:46:43;;;;;;;;;;;27.10;91.40;;;;;;5106035;28;19915;-51
2021/06/09 13:49:09;;;;;;;;;;;27.10;91.50;;;;;;5105714;28;19900;-50
2021/06/09 13:51:39;;;;;;;;;;;27.20;91.50;;;;;;5105873;28;20147;-51
2021/06/09 13:54:06;;;;;;;;;;;27.20;91.50;;;;;;5105675;28;19912;-47
2021/06/09 13:56:33;;;;;;;;;;;27.20;91.40;;;;;;5105842;28;20189;-52
2021/06/09 13:59:33;;;;;;;;;;;27.20;91.40;;;;;;5105532;28;19904;-47
2021/06/09 14:02:04;;;;;;;;;;;27.20;91.40;;;;;;5062394;28;20038;-44
2021/06/09 14:04:37;;;;;;;;;;;27.30;91.40;;;;;;5105505;28;19911;-46
2021/06/09 14:07:08;;;;;;;;;;;27.30;91.40;;;;;;5105446;28;19904;-54
2021/06/09 14:09:34;;;;;;;;;;;27.30;91.30;;;;;;5105481;28;19904;-47
2021/06/09 14:12:10;;;;;;;;;;;27.30;91.30;;;;;;5105627;28;19903;-51
2021/06/09 14:14:37;;;;;;;;;;;27.30;91.20;;;;;;5105160;28;19943;-50
2021/06/09 14:17:03;;;;;;;;;;;27.30;91.10;;;;;;5105346;28;19904;-51
2021/06/09 14:19:30;;;;;;;;;;;27.40;91.10;;;;;;5105332;28;19920;-51
2021/06/09 14:21:56;;;;;;;;;;;27.40;90.90;;;;;;5105348;28;19932;-49
2021/06/09 14:24:23;;;;;;;;;;;27.40;90.90;;;;;;5105059;28;20097;-46
2021/06/09 14:26:50;;;;;;;;;;;27.50;91.00;;;;;;5105023;28;19908;-52
2021/06/09 14:29:16;;;;;;;;;;;27.50;90.90;;;;;;5104837;28;19910;-46